Time;durP1;ratioP1;P1;durP2;ratioP2;P2;SDS_P1;SDS_P2;PMS_P1;PMS_P2;Temp;Humidity;BMP_temperature;BMP_pressure;BME280_temperature;BME280_humidity;BME280_pressure;Samples;Min_cycle;Max_cycle;Signal;HPM_P1;HPM_P2
2021/09/12 00:01:05;;;;;;;;;16.00;15.00;;;;;21.28;48.46;101498.28;4905929;29;45292;-73
2021/09/12 00:03:30;;;;;;;;;14.50;13.50;;;;;21.10;49.12;101473.22;4904595;29;46279;-74
2021/09/12 00:05:56;;;;;;;;;12.00;12.00;;;;;21.26;49.23;101493.94;4904911;29;45547;-73
2021/09/12 00:08:22;;;;;;;;;13.75;13.25;;;;;21.23;48.90;101503.16;4905935;29;45222;-73
2021/09/12 00:10:48;;;;;;;;;14.25;13.75;;;;;21.31;49.07;101508.06;4905908;29;46472;-73
2021/09/12 00:13:14;;;;;;;;;14.25;14.25;;;;;21.13;49.29;101482.97;4905885;29;45575;-73
2021/09/12 00:15:39;;;;;;;;;16.00;13.25;;;;;21.27;49.48;101509.25;4905554;29;45451;-73
2021/09/12 00:18:05;;;;;;;;;13.25;12.50;;;;;21.14;49.40;101487.47;4905944;29;45498;-73
2021/09/12 00:20:30;;;;;;;;;12.75;12.75;;;;;21.26;49.68;101515.66;4905445;29;46129;-74
2021/09/12 00:22:56;;;;;;;;;17.25;13.50;;;;;21.18;49.79;101488.13;4901508;29;45524;-74
2021/09/12 00:25:21;;;;;;;;;12.25;9.00;;;;;21.09;49.90;101476.88;4900679;29;45515;-73
2021/09/12 00:27:47;;;;;;;;;15.25;14.50;;;;;21.01;50.05;101460.22;4905018;29;45439;-73
2021/09/12 00:30:13;;;;;;;;;11.75;11.75;;;;;21.10;49.74;101481.34;4905866;29;46523;-73
2021/09/12 00:32:38;;;;;;;;;12.25;11.50;;;;;21.13;49.54;101487.56;4905797;29;45430;-74
2021/09/12 00:35:05;;;;;;;;;13.25;12.50;;;;;21.25;50.21;101500.31;4897917;29;45337;-73
2021/09/12 00:37:31;;;;;;;;;11.00;11.00;;;;;21.31;49.89;101509.94;4903507;28;45523;-73
2021/09/12 00:39:56;;;;;;;;;11.25;10.75;;;;;21.16;49.94;101477.38;4904509;29;45528;-73
2021/09/12 00:42:22;;;;;;;;;13.00;13.00;;;;;21.25;49.75;101487.63;4920179;28;45423;-74
2021/09/12 00:44:47;;;;;;;;;17.75;14.25;;;;;21.33;49.89;101511.53;4920136;28;45277;-74
2021/09/12 00:47:14;;;;;;;;;11.00;9.25;;;;;21.30;50.24;101500.91;4900813;29;45435;-74
2021/09/12 00:49:41;;;;;;;;;10.50;9.75;;;;;21.21;49.45;101485.22;4904179;29;45570;-73
2021/09/12 00:52:09;;;;;;;;;10.25;9.50;;;;;21.24;50.31;101487.72;4904822;29;45483;-73
2021/09/12 00:54:36;;;;;;;;;11.00;10.25;;;;;21.30;50.06;101500.91;4897162;29;45266;-74
2021/09/12 00:57:05;;;;;;;;;8.50;8.50;;;;;21.20;50.16;101478.03;4904087;29;45416;-74
2021/09/12 00:59:31;;;;;;;;;11.25;9.25;;;;;21.31;49.50;101497.22;4905150;29;47650;-74
2021/09/12 01:01:57;;;;;;;;;7.00;7.00;;;;;21.17;49.45;101480.97;4905536;29;45423;-74
2021/09/12 01:04:23;;;;;;;;;8.75;8.75;;;;;21.09;49.25;101462.47;4901232;29;45462;-74
2021/09/12 01:06:49;;;;;;;;;10.25;8.75;;;;;21.33;49.70;101497.97;4905207;29;45634;-74
2021/09/12 01:09:14;;;;;;;;;12.25;11.25;;;;;21.16;49.41;101469.22;4896617;29;45443;-74
2021/09/12 01:11:39;;;;;;;;;9.50;9.00;;;;;21.27;49.50;101482.09;4894378;29;45467;-74
2021/09/12 01:14:05;;;;;;;;;9.50;9.50;;;;;21.16;49.82;101465.63;4919260;28;45347;-73
2021/09/12 01:16:30;;;;;;;;;11.00;8.50;;;;;21.31;49.41;101486.34;4905016;29;45292;-74
2021/09/12 01:18:56;;;;;;;;;8.75;7.25;;;;;21.17;49.64;101453.81;4905081;29;45453;-74
2021/09/12 01:21:23;;;;;;;;;9.50;9.25;;;;;21.17;49.52;101459.25;4918967;28;45432;-74
2021/09/12 01:23:49;;;;;;;;;8.00;8.00;;;;;21.39;49.75;101477.69;4904267;29;45479;-74
2021/09/12 01:26:26;;;;;;;;;9.00;8.50;;;;;21.18;49.45;101452.81;4904915;29;45307;-74
2021/09/12 01:28:53;;;;;;;;;10.50;9.00;;;;;21.21;49.06;101456.22;4904810;29;46545;-73
2021/09/12 01:31:25;;;;;;;;;9.50;9.50;;;;;21.25;49.40;101455.06;4904820;29;45381;-74
2021/09/12 01:33:50;;;;;;;;;14.50;11.00;;;;;21.16;49.72;101443.94;4904432;29;45403;-73
2021/09/12 01:36:16;;;;;;;;;11.75;8.50;;;;;21.17;49.56;101451.97;4902199;29;45273;-74
2021/09/12 01:38:43;;;;;;;;;10.00;9.00;;;;;21.14;49.09;101451.31;4894682;29;46205;-74
2021/09/12 01:41:08;;;;;;;;;8.25;8.25;;;;;21.28;49.34;101478.41;4903518;29;45301;-74
2021/09/12 01:43:34;;;;;;;;;8.50;8.50;;;;;21.17;48.83;101457.41;4895021;29;45166;-74
2021/09/12 01:45:59;;;;;;;;;11.25;8.50;;;;;21.23;49.13;101470.59;4904692;29;45238;-74
2021/09/12 01:48:25;;;;;;;;;9.00;9.00;;;;;21.09;48.72;101454.31;4904693;29;45345;-74
2021/09/12 01:50:50;;;;;;;;;6.75;6.75;;;;;21.12;48.65;101478.53;4902870;29;45305;-73
2021/09/12 01:53:16;;;;;;;;;7.00;7.00;;;;;21.13;48.62;101482.97;4904084;29;45336;-73
2021/09/12 01:55:41;;;;;;;;;11.50;9.25;;;;;20.98;49.17;101456.84;4919116;28;45416;-73
2021/09/12 01:58:06;;;;;;;;;8.00;7.00;;;;;21.00;48.54;101466.66;4904189;29;45332;-73
2021/09/12 02:00:32;;;;;;;;;7.75;5.75;;;;;21.01;48.47;101476.50;4893910;29;45465;-73
2021/09/12 02:02:58;;;;;;;;;7.50;6.50;;;;;20.78;48.99;101441.84;4903941;29;45313;-73
2021/09/12 02:05:24;;;;;;;;;8.00;8.00;;;;;21.01;48.81;101475.66;4917459;28;45498;-73
2021/09/12 02:07:50;;;;;;;;;7.00;5.00;;;;;20.82;49.06;101446.13;4902708;29;48641;-73
2021/09/12 02:10:16;;;;;;;;;8.25;7.25;;;;;20.96;49.21;101470.50;4908750;28;45439;-73
2021/09/12 02:12:41;;;;;;;;;8.00;8.00;;;;;20.97;48.79;101474.97;4903401;29;45685;-74
2021/09/12 02:15:07;;;;;;;;;10.25;7.50;;;;;21.02;48.77;101482.84;4899344;29;45566;-73
2021/09/12 02:17:32;;;;;;;;;8.00;7.00;;;;;21.03;48.95;101481.84;4903857;29;45427;-73
2021/09/12 02:19:58;;;;;;;;;6.75;6.75;;;;;20.97;49.06;101471.41;4918110;28;46058;-74
2021/09/12 02:22:24;;;;;;;;;7.75;6.75;;;;;20.85;48.63;101456.78;4912576;28;45441;-74
2021/09/12 02:24:49;;;;;;;;;8.50;7.50;;;;;20.99;48.83;101483.88;4904088;29;45374;-74
2021/09/12 02:27:15;;;;;;;;;7.00;7.00;;;;;20.87;49.16;101457.56;4904086;29;45206;-73
2021/09/12 02:29:40;;;;;;;;;7.00;6.00;;;;;21.00;49.54;101482.03;4904011;29;45347;-73
2021/09/12 02:32:06;;;;;;;;;8.00;7.25;;;;;20.85;49.37;101462.22;4897019;29;45448;-74
2021/09/12 02:34:31;;;;;;;;;6.75;5.75;;;;;21.01;49.25;101495.50;4901305;29;45232;-74
2021/09/12 02:36:56;;;;;;;;;7.00;6.50;;;;;20.84;49.26;101464.03;4895929;29;46110;-74
2021/09/12 02:39:22;;;;;;;;;4.00;4.00;;;;;21.08;48.96;101499.59;4899057;29;45193;-74
2021/09/12 02:41:47;;;;;;;;;7.00;7.00;;;;;20.95;49.27;101482.34;4898999;29;45541;-74
2021/09/12 02:44:13;;;;;;;;;4.25;4.25;;;;;21.05;49.48;101505.22;4898894;29;45500;-74
2021/09/12 02:46:38;;;;;;;;;8.00;8.00;;;;;21.08;49.28;101498.69;4918464;28;47236;-74
2021/09/12 02:49:04;;;;;;;;;6.75;6.00;;;;;20.87;49.33;101458.41;4903967;29;45304;-74
2021/09/12 02:51:29;;;;;;;;;7.00;7.00;;;;;21.10;49.20;101491.34;4903422;29;46080;-74
2021/09/12 02:53:54;;;;;;;;;8.00;8.00;;;;;21.10;48.88;101488.63;4903519;29;45414;-74
2021/09/12 02:56:20;;;;;;;;;10.50;7.50;;;;;21.05;49.55;101486.22;4903673;29;45421;-74
2021/09/12 02:58:45;;;;;;;;;5.75;5.75;;;;;20.90;49.40;101455.50;4902956;29;45307;-74
2021/09/12 03:01:10;;;;;;;;;8.75;6.75;;;;;21.01;49.63;101472.94;4902354;29;45418;-74
2021/09/12 03:03:36;;;;;;;;;7.00;7.00;;;;;20.89;49.56;101452.91;4913824;28;45308;-74
2021/09/12 03:06:02;;;;;;;;;6.50;6.50;;;;;21.01;49.46;101470.22;4903606;29;45966;-74
2021/09/12 03:08:27;;;;;;;;;7.00;6.00;;;;;21.10;49.59;101486.78;4902027;29;45451;-74
2021/09/12 03:10:53;;;;;;;;;7.00;7.00;;;;;21.12;49.23;101496.66;4903437;29;45412;-74
2021/09/12 03:13:18;;;;;;;;;7.75;6.25;;;;;21.08;49.81;101477.88;4903133;29;45322;-74
2021/09/12 03:15:44;;;;;;;;;8.00;7.00;;;;;21.03;49.52;101473.69;4903509;29;46091;-74
2021/09/12 03:18:10;;;;;;;;;7.00;6.00;;;;;21.02;49.49;101461.13;4903442;29;45188;-74
2021/09/12 03:20:35;;;;;;;;;6.75;6.75;;;;;20.96;49.49;101459.66;4903296;29;45217;-73
2021/09/12 03:23:01;;;;;;;;;6.25;6.25;;;;;21.12;50.04;101478.53;4898170;29;45162;-74
2021/09/12 03:25:26;;;;;;;;;8.50;5.00;;;;;21.10;49.98;101481.34;4896637;29;46572;-74
2021/09/12 03:27:53;;;;;;;;;9.00;8.25;;;;;20.88;49.68;101445.72;4903305;29;45305;-73
2021/09/12 03:30:19;;;;;;;;;8.00;7.00;;;;;21.02;49.99;101472.84;4917966;28;45389;-73
2021/09/12 03:32:45;;;;;;;;;12.50;8.25;;;;;20.98;49.69;101462.28;4894199;29;45451;-74
2021/09/12 03:35:11;;;;;;;;;8.00;6.00;;;;;20.88;50.13;101451.13;4903231;29;46254;-74
2021/09/12 03:37:36;;;;;;;;;8.75;6.75;;;;;20.88;49.53;101452.03;4890175;29;45328;-74
2021/09/12 03:40:02;;;;;;;;;5.50;5.00;;;;;20.84;50.04;101457.75;4903109;29;45376;-74
2021/09/12 03:42:27;;;;;;;;;6.00;6.00;;;;;20.81;50.07;101457.94;4893445;29;45531;-73
2021/09/12 03:44:53;;;;;;;;;5.75;5.50;;;;;20.90;50.03;101479.06;4903108;29;45456;-73
2021/09/12 03:47:18;;;;;;;;;9.00;7.50;;;;;20.78;49.97;101450.88;4917486;28;45300;-73
2021/09/12 03:49:44;;;;;;;;;7.00;6.00;;;;;20.69;49.76;101444.19;4902060;29;45483;-74
2021/09/12 03:52:09;;;;;;;;;5.00;4.00;;;;;20.79;50.21;101474.31;4911295;28;46110;-74
2021/09/12 03:54:34;;;;;;;;;8.00;7.00;;;;;20.79;49.87;101476.16;4885704;29;47332;-74
2021/09/12 03:57:00;;;;;;;;;6.50;6.50;;;;;20.62;50.06;101442.81;4902915;29;45337;-74
2021/09/12 03:59:25;;;;;;;;;7.75;7.75;;;;;20.76;50.15;101479.06;4902835;29;45423;-74
2021/09/12 04:01:50;;;;;;;;;6.50;6.50;;;;;20.64;50.49;101459.88;4902489;29;45356;-74
2021/09/12 04:04:16;;;;;;;;;9.75;8.75;;;;;20.46;50.19;101429.34;4902809;29;45559;-73
2021/09/12 04:06:41;;;;;;;;;8.75;8.75;;;;;20.71;50.26;101457.66;4902774;29;45357;-73
2021/09/12 04:09:07;;;;;;;;;9.00;7.00;;;;;20.68;49.69;101466.88;4902832;29;45408;-74
2021/09/12 04:11:32;;;;;;;;;7.50;6.75;;;;;20.64;50.14;101473.44;4916187;28;45435;-74
2021/09/12 04:13:57;;;;;;;;;6.25;5.25;;;;;20.54;50.21;101454.13;4890190;29;45458;-74
2021/09/12 04:16:23;;;;;;;;;6.75;6.00;;;;;20.56;50.74;101459.47;4917293;28;45269;-74
2021/09/12 04:18:48;;;;;;;;;9.00;7.25;;;;;20.53;50.50;101455.13;4901577;29;45406;-74
2021/09/12 04:21:13;;;;;;;;;5.75;5.00;;;;;20.50;50.60;101449.88;4900724;29;45479;-74
2021/09/12 04:23:39;;;;;;;;;8.00;7.00;;;;;20.58;51.02;101462.97;4891794;29;45473;-74
2021/09/12 04:26:04;;;;;;;;;7.50;6.25;;;;;20.43;50.36;101432.28;4904132;28;45318;-74
2021/09/12 04:28:30;;;;;;;;;8.00;6.50;;;;;20.43;50.38;101440.41;4902663;29;45370;-74
2021/09/12 04:30:56;;;;;;;;;7.75;7.50;;;;;20.42;50.51;101435.06;4916975;28;45408;-74
2021/09/12 04:33:21;;;;;;;;;9.25;8.00;;;;;20.57;50.66;101468.50;4901089;29;47048;-74
2021/09/12 04:35:46;;;;;;;;;5.25;5.25;;;;;20.42;50.84;101440.50;4885295;29;45261;-73
2021/09/12 04:38:12;;;;;;;;;7.25;6.00;;;;;20.38;50.62;101447.06;4889781;29;45752;-74
2021/09/12 04:40:37;;;;;;;;;8.25;7.75;;;;;20.33;50.87;101440.09;4901458;28;46313;-73
2021/09/12 04:43:03;;;;;;;;;6.00;6.00;;;;;20.35;50.76;101440.88;4893995;29;47047;-73
2021/09/12 04:45:28;;;;;;;;;9.50;8.25;;;;;20.44;51.00;101454.81;4903650;28;45399;-73
2021/09/12 04:47:53;;;;;;;;;6.00;6.00;;;;;20.28;50.68;101433.19;4905580;29;45404;-73
2021/09/12 04:50:19;;;;;;;;;6.75;6.75;;;;;20.33;51.16;101440.09;4905008;29;45587;-73
2021/09/12 04:52:44;;;;;;;;;8.75;8.75;;;;;20.36;50.65;101441.72;4900655;29;45468;-74
2021/09/12 04:55:10;;;;;;;;;6.25;6.25;;;;;20.25;51.11;101437.00;4898452;29;45370;-74
2021/09/12 04:57:35;;;;;;;;;7.00;6.75;;;;;20.33;51.12;101453.66;4903999;29;45378;-74
2021/09/12 05:00:02;;;;;;;;;6.50;6.50;;;;;20.45;50.70;101471.00;4905016;29;45505;-74
2021/09/12 05:02:27;;;;;;;;;8.75;8.75;;;;;20.41;51.24;101468.56;4919057;28;48288;-74
2021/09/12 05:04:53;;;;;;;;;10.25;9.25;;;;;20.42;51.27;101482.03;4905569;29;45235;-74
2021/09/12 05:07:18;;;;;;;;;6.00;6.00;;;;;20.35;51.19;101467.97;4905112;29;45491;-74
2021/09/12 05:09:43;;;;;;;;;9.50;8.75;;;;;20.20;51.25;101449.97;4905134;29;45609;-73
2021/09/12 05:12:09;;;;;;;;;8.00;6.00;;;;;20.27;51.44;101462.16;4898599;28;45489;-74
2021/09/12 05:14:34;;;;;;;;;8.00;7.25;;;;;20.15;51.57;101443.97;4902876;29;45692;-74
2021/09/12 05:16:59;;;;;;;;;8.00;7.00;;;;;20.27;51.39;101472.16;4912547;28;45388;-73
2021/09/12 05:19:25;;;;;;;;;10.50;7.00;;;;;20.01;51.43;101423.09;4904056;29;45576;-74
2021/09/12 05:21:50;;;;;;;;;9.25;8.25;;;;;20.12;51.40;101446.84;4900975;29;45518;-74
2021/09/12 05:24:16;;;;;;;;;7.00;6.25;;;;;20.28;51.75;101468.44;4896449;29;45397;-74
2021/09/12 05:26:41;;;;;;;;;8.75;6.75;;;;;20.24;51.19;101462.34;4918768;28;45455;-74
2021/09/12 05:29:06;;;;;;;;;9.50;7.00;;;;;20.13;51.65;101438.63;4900011;29;45430;-74
2021/09/12 05:31:32;;;;;;;;;8.00;8.00;;;;;19.96;51.95;101414.38;4902978;29;45764;-74
2021/09/12 05:33:57;;;;;;;;;7.00;6.50;;;;;20.07;51.81;101441.72;4903684;29;45581;-74
2021/09/12 05:36:23;;;;;;;;;9.00;9.00;;;;;20.26;51.42;101468.53;4903435;28;45432;-74
2021/09/12 05:38:49;;;;;;;;;7.75;7.75;;;;;20.08;51.47;101448.88;4903437;28;45451;-73
2021/09/12 05:41:15;;;;;;;;;11.75;10.00;;;;;20.18;51.55;101455.47;4904371;29;46072;-73
2021/09/12 05:43:41;;;;;;;;;13.25;10.00;;;;;20.06;51.64;101445.38;4913492;28;46056;-73
2021/09/12 05:46:06;;;;;;;;;4.25;4.25;;;;;20.20;51.90;101468.03;4904915;29;45320;-74
2021/09/12 05:48:31;;;;;;;;;8.50;7.50;;;;;20.21;51.91;101484.22;4904820;29;45328;-74
2021/09/12 05:50:57;;;;;;;;;8.50;8.50;;;;;20.21;51.91;101483.34;4903865;29;46442;-74
2021/09/12 05:53:24;;;;;;;;;6.50;6.25;;;;;19.93;51.93;101442.56;4901499;29;45235;-74
2021/09/12 05:55:50;;;;;;;;;6.75;6.75;;;;;20.02;52.17;101451.09;4903486;29;45351;-74
2021/09/12 05:58:15;;;;;;;;;8.25;8.25;;;;;19.94;52.38;101441.56;4894133;29;45554;-74
2021/09/12 06:00:41;;;;;;;;;8.25;8.25;;;;;20.07;52.22;101463.38;4901991;29;45444;-74
2021/09/12 06:03:06;;;;;;;;;8.25;7.50;;;;;20.05;52.45;101461.75;4893314;29;45361;-74
2021/09/12 06:05:31;;;;;;;;;7.50;6.50;;;;;19.99;52.07;101455.72;4916957;28;45399;-74
2021/09/12 06:07:57;;;;;;;;;10.75;10.75;;;;;20.11;52.36;101486.66;4904027;29;45508;-73
2021/09/12 06:10:22;;;;;;;;;10.00;9.75;;;;;19.96;52.54;101455.03;4904007;29;45471;-73
2021/09/12 06:12:47;;;;;;;;;8.75;8.75;;;;;19.95;52.49;101462.31;4901682;29;45436;-74
2021/09/12 06:15:13;;;;;;;;;6.75;6.75;;;;;20.09;52.50;101482.28;4891282;29;45408;-74
2021/09/12 06:17:39;;;;;;;;;10.50;8.25;;;;;19.89;52.76;101459.94;4894024;29;45290;-74
2021/09/12 06:20:06;;;;;;;;;8.75;8.75;;;;;20.13;52.73;101495.53;4901655;29;46215;-74
2021/09/12 06:22:31;;;;;;;;;8.50;8.50;;;;;19.99;52.80;101471.97;4895428;29;45330;-74
2021/09/12 06:24:56;;;;;;;;;7.50;7.25;;;;;20.14;52.63;101496.41;4889547;29;45271;-74
2021/09/12 06:27:22;;;;;;;;;7.25;7.25;;;;;19.93;53.23;101468.75;4896009;29;45612;-74
2021/09/12 06:29:47;;;;;;;;;11.50;10.25;;;;;19.99;52.65;101477.38;4903763;29;46501;-74
2021/09/12 06:32:13;;;;;;;;;8.00;7.25;;;;;20.13;53.01;101494.66;4900780;29;45375;-74
2021/09/12 06:34:38;;;;;;;;;12.25;10.25;;;;;19.99;53.17;101488.22;4897446;29;45361;-74
2021/09/12 06:37:07;;;;;;;;;9.50;9.50;;;;;19.92;52.99;101472.47;4907631;28;45450;-75
2021/09/12 06:39:32;;;;;;;;;9.75;9.00;;;;;19.98;53.15;101480.22;4902430;29;47236;-77
2021/09/12 06:42:01;;;;;;;;;8.75;8.75;;;;;19.82;52.77;101457.72;4898181;29;45464;-76
2021/09/12 06:44:29;;;;;;;;;10.50;9.50;;;;;19.82;53.48;101453.16;4890062;29;45431;-77
2021/09/12 06:46:54;;;;;;;;;5.50;4.75;;;;;19.70;53.58;101438.50;4918498;28;45481;-77
2021/09/12 06:49:20;;;;;;;;;11.25;11.25;;;;;19.83;53.12;101467.56;4917908;28;46344;-77
2021/09/12 06:51:45;;;;;;;;;12.00;9.50;;;;;19.78;53.14;101463.31;4900294;29;45455;-77
2021/09/12 06:54:13;;;;;;;;;10.50;10.50;;;;;19.84;53.66;101462.06;4892289;29;45474;-76
2021/09/12 06:56:40;;;;;;;;;12.50;10.75;;;;;19.89;53.40;101476.19;4900945;28;45532;-76
2021/09/12 07:06:09;;;;;;;;;9.00;9.00;;;;;19.96;53.84;101493.88;4780406;29;45685;-74
2021/09/12 07:12:13;;;;;;;;;;;;;;;;;;;;;
2021/09/12 07:24:50;;;;;;;;;;;;;;;;;;;;;
2021/09/12 07:40:55;;;;;;;;;;;;;;;;;;;;;
2021/09/12 07:43:43;;;;;;;;;9.50;9.25;;;;;19.68;53.26;101447.66;4799886;29;68986;-73
2021/09/12 07:46:20;;;;;;;;;11.00;9.00;;;;;19.90;53.16;101472.53;4824112;29;45481;-74
2021/09/12 07:48:58;;;;;;;;;;;;;;;;;;;;;
2021/09/12 07:51:46;;;;;;;;;8.75;8.00;;;;;20.05;52.98;101486.16;4854483;28;72976;-74
2021/09/12 08:31:16;;;;;;;;;;;;;;;;;;;;;
2021/09/12 08:33:51;;;;;;;;;9.25;9.25;;;;;20.22;50.40;101475.13;4665868;30;68657;-75
2021/09/12 08:36:22;;;;;;;;;7.00;6.00;;;;;20.31;50.73;101495.38;4692577;30;45544;-74
2021/09/12 09:02:48;;;;;;;;;;;;;;;;;;;;;
2021/09/12 09:40:32;;;;;;;;;6.00;5.00;;;;;20.87;48.27;101473.84;5509763;23;45815;-71
2021/09/12 09:42:58;;;;;;;;;3.00;3.00;;;;;20.91;48.46;101473.56;4907138;28;45446;-71
2021/09/12 09:45:24;;;;;;;;;3.50;3.50;;;;;21.09;48.88;101493.19;4904588;29;45318;-71
2021/09/12 09:47:52;;;;;;;;;6.25;4.50;;;;;21.12;48.75;101493.94;4887631;29;47581;-72
2021/09/12 09:50:25;;;;;;;;;8.00;5.00;;;;;21.02;48.91;101470.13;4900703;29;45164;-72
2021/09/12 09:52:53;;;;;;;;;3.00;3.00;;;;;21.05;48.21;101459.06;4908604;28;45308;-72
2021/09/12 09:55:21;;;;;;;;;6.00;4.00;;;;;21.22;48.18;101495.13;4905407;28;45510;-72
2021/09/12 09:57:50;;;;;;;;;5.00;5.00;;;;;21.12;48.02;101461.38;4903120;29;48044;-72
2021/09/12 10:00:17;;;;;;;;;4.00;4.00;;;;;21.12;47.74;101456.84;4902968;29;45272;-71
2021/09/12 10:02:43;;;;;;;;;3.75;3.75;;;;;21.34;48.23;101488.00;4904621;29;45388;-72
2021/09/12 10:05:57;;;;;;;;;;;;;;;;;;;;;
2021/09/12 10:08:24;;;;;;;;;5.00;4.75;;;;;21.16;48.13;101457.50;4885604;29;74187;-80
2021/09/12 10:15:17;;;;;;;;;;;;;;;;;;;;;
2021/09/12 10:26:29;;;;;;;;;3.00;3.00;;;;;21.27;47.65;101433.22;4857453;29;45300;-77
2021/09/12 10:29:03;;;;;;;;;4.50;4.00;;;;;21.27;46.97;101438.66;4908272;28;45386;-76
2021/09/12 10:31:32;;;;;;;;;5.50;5.50;;;;;21.10;47.72;101399.94;4889141;28;47600;-76
2021/09/12 10:34:53;;;;;;;;;4.00;4.00;;;;;21.45;47.27;101467.31;4902633;29;45439;-76
2021/09/12 10:37:54;;;;;;;;;5.75;4.50;;;;;21.10;47.74;101409.91;4891963;29;45562;-77
2021/09/12 10:40:24;;;;;;;;;4.75;4.75;;;;;21.16;47.03;101422.22;4874596;29;45570;-77
2021/09/12 10:42:49;;;;;;;;;5.00;5.00;;;;;21.22;47.33;101424.53;4907830;28;46773;-76
2021/09/12 10:45:26;;;;;;;;;5.00;5.00;;;;;21.35;47.19;101447.16;4909888;28;45498;-77
2021/09/12 10:48:12;;;;;;;;;6.00;6.00;;;;;21.36;46.91;101435.31;4912446;28;45426;-77
2021/09/12 10:50:43;;;;;;;;;7.00;6.00;;;;;21.36;47.47;101443.47;4916317;28;45688;-77
2021/09/12 10:53:09;;;;;;;;;6.00;6.00;;;;;21.28;46.95;101433.13;4902127;29;47103;-77
2021/09/12 10:56:03;;;;;;;;;5.75;4.50;;;;;21.52;48.03;101466.91;4908842;28;45531;-74
2021/09/12 10:58:31;;;;;;;;;4.50;4.50;;;;;21.38;47.87;101440.66;4893005;28;45562;-75
2021/09/12 11:00:58;;;;;;;;;14.00;11.75;;;;;21.41;47.09;101440.44;4895191;29;45749;-77
2021/09/12 11:03:24;;;;;;;;;5.00;5.00;;;;;21.43;47.19;101433.94;4892695;29;45492;-81
2021/09/12 11:05:50;;;;;;;;;6.00;4.25;;;;;21.46;47.43;101432.84;4903589;28;45590;-81
2021/09/12 11:08:16;;;;;;;;;8.00;7.00;;;;;21.65;47.34;101454.22;4898032;29;45404;-81
2021/09/12 11:10:54;;;;;;;;;5.00;5.00;;;;;21.55;47.01;101420.53;4900377;28;45545;-77
2021/09/12 11:13:24;;;;;;;;;6.50;5.50;;;;;21.48;47.35;101400.19;4876633;29;47531;-77
2021/09/12 11:16:03;;;;;;;;;5.50;5.25;;;;;21.71;47.15;101437.53;4898288;29;45760;-76
2021/09/12 11:18:43;;;;;;;;;7.00;6.00;;;;;21.50;47.45;101390.09;4909257;28;46006;-76
2021/09/12 11:21:08;;;;;;;;;6.00;6.00;;;;;21.61;46.76;101404.69;4906731;28;45477;-80
2021/09/12 11:23:35;;;;;;;;;6.25;5.75;;;;;21.90;47.14;101452.56;4900605;28;46472;-79
2021/09/12 11:26:01;;;;;;;;;4.25;4.25;;;;;21.69;46.84;101406.03;4899901;28;45530;-81
2021/09/12 11:28:29;;;;;;;;;9.25;8.00;;;;;21.93;46.82;101447.78;4882321;29;45755;-81
2021/09/12 11:30:56;;;;;;;;;4.25;3.50;;;;;21.63;46.99;101394.59;4897865;29;45752;-80
2021/09/12 11:33:48;;;;;;;;;6.25;6.25;;;;;21.83;47.09;101425.84;4894895;29;45744;-77
2021/09/12 11:36:14;;;;;;;;;6.00;6.00;;;;;21.63;47.16;101389.16;4880301;28;45752;-78
2021/09/12 11:38:39;;;;;;;;;6.00;6.00;;;;;21.74;46.97;101406.56;4913326;28;45430;-79
2021/09/12 11:41:05;;;;;;;;;7.25;6.00;;;;;21.86;46.67;101413.00;4908255;28;46644;-73
2021/09/12 11:43:30;;;;;;;;;4.00;4.00;;;;;21.88;47.07;101400.16;4911662;28;46032;-74
2021/09/12 11:46:11;;;;;;;;;6.50;6.50;;;;;22.07;46.71;101424.19;4909059;28;45392;-74
2021/09/12 11:48:38;;;;;;;;;9.25;7.75;;;;;21.75;46.48;101364.81;4916870;28;45273;-74
2021/09/12 11:51:05;;;;;;;;;5.25;5.00;;;;;22.14;46.48;101417.38;4909230;28;45411;-74
2021/09/12 11:53:30;;;;;;;;;7.50;6.50;;;;;21.80;46.78;101352.66;4923061;28;46537;-74
2021/09/12 11:56:09;;;;;;;;;7.50;7.50;;;;;21.98;46.48;101371.34;4915378;28;45564;-75
2021/09/12 11:58:36;;;;;;;;;6.75;5.50;;;;;22.02;46.51;101381.06;4909282;28;45604;-77
2021/09/12 12:01:02;;;;;;;;;6.00;6.00;;;;;22.27;47.00;101415.53;4902987;28;45526;-79
2021/09/12 12:03:28;;;;;;;;;8.50;8.25;;;;;22.26;46.14;101407.47;4903971;28;46134;-80
2021/09/12 12:05:55;;;;;;;;;9.00;7.75;;;;;22.21;46.19;101389.63;4902483;28;45750;-78
2021/09/12 12:08:20;;;;;;;;;5.75;5.75;;;;;22.33;46.58;101404.22;4884454;29;45587;-80
2021/09/12 12:10:46;;;;;;;;;4.25;4.25;;;;;22.17;46.57;101376.38;4908824;28;45797;-81
2021/09/12 12:13:11;;;;;;;;;5.00;5.00;;;;;22.37;46.03;101396.75;4907628;28;46853;-77
2021/09/12 12:15:43;;;;;;;;;8.00;8.00;;;;;22.29;46.28;101377.38;4884206;29;45558;-80
2021/09/12 12:18:12;;;;;;;;;7.00;6.25;;;;;22.42;46.42;101396.38;4884089;29;45456;-78
2021/09/12 12:20:39;;;;;;;;;8.00;5.50;;;;;22.21;46.20;101351.56;4901453;29;45535;-80
2021/09/12 12:23:25;;;;;;;;;6.50;5.75;;;;;22.50;46.30;101399.44;4899999;28;47763;-81
2021/09/12 12:25:53;;;;;;;;;4.75;4.75;;;;;22.54;46.00;101395.53;4905167;28;45761;-81
2021/09/12 12:28:25;;;;;;;;;5.75;5.75;;;;;22.56;45.90;101393.53;4900193;29;45591;-80
2021/09/12 12:31:16;;;;;;;;;6.75;6.00;;;;;22.61;46.39;101385.06;4900766;29;45703;-80
2021/09/12 12:33:44;;;;;;;;;7.00;7.00;;;;;22.46;45.80;101362.56;4879691;28;46515;-80
2021/09/12 12:36:17;;;;;;;;;6.00;6.00;;;;;22.57;45.65;101373.53;4884925;29;45504;-80
2021/09/12 12:38:47;;;;;;;;;5.75;5.75;;;;;22.49;45.70;101368.63;4895777;28;45556;-73
2021/09/12 12:41:17;;;;;;;;;9.00;7.25;;;;;22.47;45.79;101365.16;4889987;28;45916;-75
2021/09/12 12:43:43;;;;;;;;;4.00;4.00;;;;;22.56;46.36;101369.91;4912944;28;46159;-74
2021/09/12 12:46:09;;;;;;;;;5.25;5.00;;;;;22.53;45.76;101358.41;4917375;28;45482;-74
2021/09/12 12:48:39;;;;;;;;;5.00;5.00;;;;;22.49;45.59;101352.31;4909294;28;45603;-74
2021/09/12 12:51:16;;;;;;;;;6.75;6.75;;;;;22.77;45.71;101396.56;4910155;28;45411;-74
2021/09/12 12:53:46;;;;;;;;;7.00;7.00;;;;;22.60;45.83;101359.69;4924085;28;45444;-75
2021/09/12 12:56:20;;;;;;;;;6.75;6.00;;;;;22.65;46.00;101362.94;4917773;28;45413;-75
2021/09/12 12:58:46;;;;;;;;;8.75;6.25;;;;;22.76;45.91;101373.03;4907380;28;45391;-74
2021/09/12 13:01:12;;;;;;;;;5.00;5.00;;;;;22.85;45.40;101383.22;4899056;28;45321;-74
2021/09/12 13:03:39;;;;;;;;;6.25;6.25;;;;;22.68;46.08;101346.38;4911352;28;45282;-75
2021/09/12 13:06:12;;;;;;;;;7.00;7.00;;;;;22.88;45.54;101380.28;4923958;28;45470;-75
2021/09/12 13:08:39;;;;;;;;;6.00;6.00;;;;;22.82;45.61;101364.44;4894097;28;45280;-74
2021/09/12 13:11:05;;;;;;;;;6.00;5.50;;;;;22.91;45.69;101373.75;4910886;28;45475;-74
2021/09/12 13:13:31;;;;;;;;;7.00;6.75;;;;;22.87;45.97;101358.63;4917785;28;45546;-74
2021/09/12 13:15:56;;;;;;;;;5.00;5.00;;;;;22.78;45.42;101349.28;4907238;28;45423;-74
2021/09/12 13:18:22;;;;;;;;;7.75;7.00;;;;;22.73;45.76;101338.75;4909934;28;45379;-74
2021/09/12 13:20:50;;;;;;;;;6.00;6.00;;;;;22.72;45.21;101330.69;4916383;28;45436;-74
2021/09/12 13:23:16;;;;;;;;;5.25;4.25;;;;;22.84;45.69;101354.28;4919327;28;46261;-74
2021/09/12 13:25:42;;;;;;;;;5.00;5.00;;;;;22.73;45.52;101340.59;4894165;29;45833;-74
2021/09/12 13:28:07;;;;;;;;;5.50;5.50;;;;;22.65;45.97;101318.53;4917653;28;45346;-74
2021/09/12 13:30:34;;;;;;;;;4.25;4.25;;;;;22.91;46.28;101351.97;4913681;28;45400;-74
2021/09/12 13:33:00;;;;;;;;;6.00;6.00;;;;;22.57;46.19;101297.34;4911224;28;46539;-74
2021/09/12 13:35:25;;;;;;;;;5.50;4.75;;;;;22.64;45.71;101305.94;4915239;28;45316;-74
2021/09/12 13:37:51;;;;;;;;;4.50;4.50;;;;;22.60;45.59;101285.34;4905533;28;45349;-74
2021/09/12 13:40:19;;;;;;;;;6.00;6.00;;;;;22.80;45.81;101311.94;4916750;28;45421;-74
2021/09/12 13:42:45;;;;;;;;;8.00;5.75;;;;;22.98;45.75;101344.22;4904724;28;45336;-74
2021/09/12 13:45:13;;;;;;;;;6.75;5.75;;;;;22.91;45.53;101335.66;4896851;29;45557;-74
2021/09/12 13:47:39;;;;;;;;;4.50;4.50;;;;;22.94;45.43;101355.34;4917646;28;45585;-74
2021/09/12 13:50:06;;;;;;;;;5.00;5.00;;;;;22.80;45.20;101328.25;4902860;29;46026;-75
2021/09/12 13:52:32;;;;;;;;;6.50;5.50;;;;;22.97;46.06;101351.53;4920679;28;47455;-75
2021/09/12 13:54:57;;;;;;;;;5.50;5.50;;;;;22.87;45.46;101332.28;4923656;28;45356;-75
2021/09/12 13:57:22;;;;;;;;;5.50;5.50;;;;;22.76;45.91;101310.44;4889689;29;45378;-75
2021/09/12 13:59:48;;;;;;;;;5.25;5.25;;;;;22.81;45.71;101310.97;4898507;28;45401;-74